Weather at Campo de Aviación de Peralveche

Public forecast

Using degrees Celsius for public forecast. Weather courtesy of forecast.io.

Closest aviation weather report (METAR) to Campo de Aviación de Peralveche

Closest report is Madrid–Torrejón Airport / Torrejón Air Base, 47.4 nm (87.7 km) W. Retrieved 2021/04/14 00:30 UTC (35 minutes ago):

LETO 140030Z 04003KT 9999 FEW048 09/07 Q1020 NOSIG

Closest aviation forecast (TAF) to Campo de Aviación de Peralveche

Closest forecast is Madrid–Torrejón Airport / Torrejón Air Base, 47.4 nm (87.7 km) W. Retrieved 2021-04-14 00:00 UTC (1 hour ago):

TAF LETO 132300Z 1400/1424 03008KT 9999 SCT040 BKN055 TX19/1415Z TN07/1406Z BECMG 1406/1407 09008KT BECMG 1412/1413 14008KT PROB30 TEMPO 1413/1418 FEW025TCU BECMG 1419/1420 07007KT